createdAt,value
2022-11-19T00:02:07.969Z,14.65
2022-11-19T00:04:37.518Z,14.20
2022-11-19T00:07:07.622Z,15.02
2022-11-19T00:09:34.420Z,14.13
2022-11-19T00:12:19.508Z,15.27
2022-11-19T00:14:46.774Z,14.55
2022-11-19T00:17:16.239Z,15.20
2022-11-19T00:19:45.651Z,15.05
2022-11-19T00:22:14.674Z,15.88
2022-11-19T00:24:44.160Z,15.10
2022-11-19T00:27:11.120Z,15.30
2022-11-19T00:29:40.598Z,15.48
2022-11-19T00:32:09.820Z,16.00
2022-11-19T00:34:36.772Z,15.77
2022-11-19T00:37:05.737Z,15.57
2022-11-19T00:39:34.973Z,16.67
2022-11-19T00:42:04.230Z,16.27
2022-11-19T00:44:37.222Z,17.13
2022-11-19T00:47:04.558Z,16.90
2022-11-19T00:49:31.293Z,18.08
2022-11-19T00:52:00.529Z,16.63
2022-11-19T00:54:29.984Z,16.27
2022-11-19T00:56:56.718Z,16.92
2022-11-19T00:59:26.179Z,16.52
2022-11-19T01:01:55.596Z,17.23
2022-11-19T01:04:24.893Z,16.10
2022-11-19T01:06:54.264Z,15.82
2022-11-19T01:09:21.267Z,13.88
2022-11-19T01:11:50.573Z,14.95
2022-11-19T01:14:19.641Z,14.68
2022-11-19T01:16:48.611Z,14.23
2022-11-19T01:19:17.840Z,13.93
2022-11-19T01:21:49.630Z,13.50
2022-11-19T01:24:16.412Z,14.00
2022-11-19T01:26:46.005Z,13.13
2022-11-19T01:29:18.087Z,13.38
2022-11-19T01:31:47.500Z,13.55
2022-11-19T01:34:16.697Z,14.98
2022-11-19T01:36:48.176Z,13.95
2022-11-19T01:39:19.761Z,13.32
2022-11-19T01:47:06.547Z,12.05
2022-11-19T01:49:35.553Z,14.27
2022-11-19T01:52:07.901Z,14.52
2022-11-19T01:54:47.038Z,13.75
2022-11-19T01:57:16.452Z,13.45
2022-11-19T01:59:46.350Z,13.57
2022-11-19T02:02:17.362Z,14.57
2022-11-19T02:04:44.331Z,17.75
2022-11-19T02:07:12.417Z,19.35
2022-11-19T02:09:42.407Z,19.98
2022-11-19T02:12:24.559Z,19.85
2022-11-19T02:15:12.370Z,20.60
2022-11-19T02:18:00.633Z,20.13
2022-11-19T02:20:52.990Z,21.45
2022-11-19T02:23:53.838Z,21.23
2022-11-19T02:26:25.931Z,22.15
2022-11-19T02:29:03.767Z,22.33
2022-11-19T02:31:59.709Z,22.83
2022-11-19T02:35:04.250Z,22.30
2022-11-19T02:37:46.117Z,21.70
2022-11-19T02:43:10.572Z,21.92
2022-11-19T02:45:47.923Z,21.83
2022-11-19T02:48:28.257Z,23.48
2022-11-19T02:51:02.690Z,22.65
2022-11-19T02:53:29.930Z,22.63
2022-11-19T02:56:11.970Z,24.55
2022-11-19T02:59:11.980Z,23.10
2022-11-19T03:02:02.631Z,22.55
2022-11-19T03:04:30.617Z,23.08
2022-11-19T03:07:03.326Z,22.95
2022-11-19T03:09:34.777Z,24.10
2022-11-19T03:12:36.356Z,24.23
2022-11-19T03:15:40.843Z,23.55
2022-11-19T03:18:19.163Z,24.10
2022-11-19T03:21:08.874Z,24.33
2022-11-19T03:23:47.039Z,23.35
2022-11-19T03:26:19.060Z,23.73
2022-11-19T03:28:47.887Z,24.00
2022-11-19T03:31:17.291Z,24.98
2022-11-19T03:33:51.916Z,23.25
2022-11-19T03:36:31.247Z,25.52
2022-11-19T03:39:07.509Z,25.95
2022-11-19T03:41:38.593Z,25.23
2022-11-19T03:44:12.278Z,25.02
2022-11-19T03:46:43.105Z,24.98
2022-11-19T03:49:14.800Z,24.17
2022-11-19T03:54:11.626Z,24.05
2022-11-19T03:56:41.027Z,24.80
2022-11-19T03:59:12.882Z,26.90
2022-11-19T04:01:40.542Z,26.58
2022-11-19T04:04:28.307Z,25.58
2022-11-19T04:06:58.275Z,26.00
2022-11-19T04:09:27.332Z,25.85
2022-11-19T04:11:57.027Z,26.00
2022-11-19T04:14:26.872Z,26.92
2022-11-19T04:16:53.773Z,26.52
2022-11-19T04:19:20.726Z,26.10
2022-11-19T04:21:50.345Z,25.33
2022-11-19T04:24:17.723Z,26.83
2022-11-19T04:26:47.289Z,25.35
2022-11-19T04:29:16.639Z,25.05
2022-11-19T04:31:46.067Z,24.48
2022-11-19T04:34:15.222Z,25.00
2022-11-19T04:36:46.833Z,25.65
2022-11-19T04:39:16.032Z,26.10
2022-11-19T04:41:44.960Z,27.35
2022-11-19T04:44:14.960Z,27.23
2022-11-19T04:46:41.664Z,27.85
2022-11-19T04:49:10.705Z,29.25
2022-11-19T04:51:39.561Z,28.90
2022-11-19T04:54:08.651Z,29.27
2022-11-19T04:56:40.011Z,29.65
2022-11-19T04:59:09.088Z,28.08
2022-11-19T05:01:36.109Z,29.02
2022-11-19T05:04:03.087Z,28.38
2022-11-19T05:06:33.428Z,28.55
2022-11-19T05:09:03.307Z,30.05
2022-11-19T05:11:32.269Z,28.58
2022-11-19T05:14:01.222Z,30.63
2022-11-19T05:16:30.441Z,31.70
2022-11-19T05:18:57.145Z,33.05
2022-11-19T05:21:26.089Z,33.58
2022-11-19T05:23:55.034Z,33.33
2022-11-19T05:26:21.788Z,33.85
2022-11-19T05:28:51.597Z,33.33
2022-11-19T05:31:20.474Z,34.95
2022-11-19T05:33:49.910Z,33.72
2022-11-19T05:36:19.964Z,34.25
2022-11-19T05:38:46.645Z,34.53
2022-11-19T05:41:16.080Z,33.97
2022-11-19T05:43:42.843Z,34.30
2022-11-19T05:46:12.048Z,36.25
2022-11-19T05:48:41.096Z,35.42
2022-11-19T05:51:15.179Z,37.28
2022-11-19T05:53:42.535Z,34.75
2022-11-19T05:56:12.286Z,36.30
2022-11-19T05:58:41.198Z,36.00
2022-11-19T06:01:07.935Z,34.47
2022-11-19T06:03:37.207Z,34.47
2022-11-19T06:06:04.245Z,34.55
2022-11-19T06:08:30.985Z,35.97
2022-11-19T06:10:59.926Z,33.28
2022-11-19T06:13:26.673Z,33.97
2022-11-19T06:15:53.751Z,33.95
2022-11-19T06:18:20.478Z,34.17
2022-11-19T06:20:47.176Z,33.08
2022-11-19T06:23:16.735Z,32.50
2022-11-19T06:25:47.699Z,32.22
2022-11-19T06:28:19.078Z,31.63
2022-11-19T06:30:48.017Z,30.25
2022-11-19T06:33:19.858Z,31.92
2022-11-19T06:38:18.182Z,29.75
2022-11-19T06:40:50.172Z,30.45
2022-11-19T06:43:20.026Z,30.27
2022-11-19T06:45:49.591Z,30.23
2022-11-19T06:48:16.357Z,30.00
2022-11-19T06:50:45.397Z,31.45
2022-11-19T06:53:12.529Z,30.73
2022-11-19T06:55:41.772Z,30.10
2022-11-19T06:58:10.944Z,30.05
2022-11-19T07:00:42.319Z,30.42
2022-11-19T07:03:11.728Z,30.77
2022-11-19T07:05:38.569Z,31.50
2022-11-19T07:08:05.369Z,30.40
2022-11-19T07:10:34.548Z,30.67
2022-11-19T07:13:04.124Z,29.52
2022-11-19T07:15:30.880Z,29.75
2022-11-19T07:18:01.157Z,29.58
2022-11-19T07:20:28.483Z,30.88
2022-11-19T07:22:59.320Z,28.60
2022-11-19T07:25:29.333Z,30.97
2022-11-19T07:28:03.479Z,29.65
2022-11-19T07:30:34.836Z,28.73
2022-11-19T07:33:01.570Z,30.42
2022-11-19T07:35:30.482Z,30.17
2022-11-19T07:38:01.827Z,28.85
2022-11-19T07:40:33.327Z,29.80
2022-11-19T07:43:02.581Z,30.20
2022-11-19T07:45:29.528Z,29.10
2022-11-19T07:47:58.650Z,28.23
2022-11-19T07:50:25.358Z,27.55
2022-11-19T07:52:52.087Z,28.38
2022-11-19T07:55:21.688Z,27.40
2022-11-19T07:57:48.645Z,29.52
2022-11-19T08:00:17.889Z,28.67
2022-11-19T08:02:44.674Z,30.30
2022-11-19T08:05:13.913Z,29.60
2022-11-19T08:07:43.986Z,30.42
2022-11-19T08:10:11.401Z,29.15
2022-11-19T08:12:40.841Z,28.52
2022-11-19T08:15:08.556Z,29.55
2022-11-19T08:17:56.423Z,30.55
2022-11-19T08:20:26.005Z,29.63
2022-11-19T08:22:52.783Z,29.13
2022-11-19T08:25:22.265Z,28.30
2022-11-19T08:27:51.132Z,28.38
2022-11-19T08:30:20.193Z,27.58
2022-11-19T08:32:46.861Z,27.83
2022-11-19T08:35:16.666Z,26.58
2022-11-19T08:37:45.593Z,25.85
2022-11-19T08:40:15.157Z,27.67
2022-11-19T08:42:59.850Z,28.50
2022-11-19T08:45:39.005Z,28.27
2022-11-19T08:48:09.852Z,28.48
2022-11-19T08:50:36.981Z,28.13
2022-11-19T08:53:08.458Z,27.75
2022-11-19T08:55:44.051Z,27.15
2022-11-19T08:58:11.633Z,27.35
2022-11-19T09:00:40.547Z,27.83
2022-11-19T09:03:10.430Z,28.60
2022-11-19T09:05:39.540Z,27.73
2022-11-19T09:08:08.548Z,28.70
2022-11-19T09:10:40.907Z,28.13
2022-11-19T09:13:07.669Z,28.63
2022-11-19T09:15:35.314Z,28.30
2022-11-19T09:18:04.251Z,28.20
2022-11-19T09:20:34.868Z,26.65
2022-11-19T09:23:02.100Z,27.33
2022-11-19T09:25:29.282Z,26.55
2022-11-19T09:27:58.258Z,26.40
2022-11-19T09:30:25.715Z,26.50
2022-11-19T09:32:54.617Z,27.15
2022-11-19T09:35:26.054Z,25.92
2022-11-19T09:37:52.799Z,25.42
2022-11-19T09:40:21.851Z,26.23
2022-11-19T09:43:17.299Z,25.75
2022-11-19T09:46:01.161Z,24.52
2022-11-19T09:48:38.939Z,26.55
2022-11-19T09:51:14.202Z,25.88
2022-11-19T09:53:54.786Z,25.38
2022-11-19T09:56:29.886Z,25.48
2022-11-19T09:58:58.916Z,25.10
2022-11-19T10:01:30.309Z,24.33
2022-11-19T10:04:00.373Z,24.38
2022-11-19T10:06:38.363Z,24.45
2022-11-19T10:09:26.693Z,23.90
2022-11-19T10:12:09.202Z,24.00
2022-11-19T10:14:54.999Z,24.00
2022-11-19T10:17:43.626Z,24.23
2022-11-19T10:20:34.314Z,25.42
2022-11-19T10:23:11.843Z,25.48
2022-11-19T10:25:50.062Z,23.75
2022-11-19T10:28:26.324Z,24.63
2022-11-19T10:30:58.973Z,24.80
2022-11-19T10:33:34.789Z,24.83
2022-11-19T10:36:32.020Z,23.55
2022-11-19T10:39:07.741Z,23.20
2022-11-19T10:41:51.880Z,23.30
2022-11-19T10:44:40.063Z,23.80
2022-11-19T10:47:37.902Z,22.85
2022-11-19T10:50:11.256Z,22.77
2022-11-19T10:52:59.177Z,21.20
2022-11-19T10:55:38.997Z,21.33
2022-11-19T10:58:19.507Z,20.08
2022-11-19T11:00:47.041Z,20.92
2022-11-19T11:03:43.653Z,18.90
2022-11-19T11:06:12.135Z,19.48
2022-11-19T11:08:54.339Z,21.00
2022-11-19T11:11:48.789Z,22.60
2022-11-19T11:14:36.136Z,22.67
2022-11-19T11:17:04.513Z,22.45
2022-11-19T11:19:33.380Z,21.52
2022-11-19T11:22:02.550Z,22.83
2022-11-19T11:24:40.545Z,23.85
2022-11-19T11:27:19.538Z,23.08
2022-11-19T11:29:49.490Z,23.25
2022-11-19T11:32:42.350Z,22.02
2022-11-19T11:35:30.108Z,22.25
2022-11-19T11:37:59.446Z,23.35
2022-11-19T11:40:29.377Z,24.05
2022-11-19T11:42:58.719Z,23.33
2022-11-19T11:45:35.167Z,24.08
2022-11-19T11:48:16.442Z,25.23
2022-11-19T11:50:46.759Z,23.92
2022-11-19T11:53:16.340Z,23.83
2022-11-19T11:55:45.777Z,23.40
2022-11-19T11:58:28.709Z,23.85
2022-11-19T12:01:21.018Z,23.67
2022-11-19T12:03:59.595Z,23.67
2022-11-19T12:06:35.027Z,24.50
2022-11-19T12:09:21.867Z,23.70
2022-11-19T12:12:08.495Z,24.50
2022-11-19T12:14:58.335Z,22.25
2022-11-19T12:17:47.083Z,22.02
2022-11-19T12:20:24.918Z,21.48
2022-11-19T12:23:00.656Z,21.45
2022-11-19T12:25:36.506Z,21.67
2022-11-19T12:28:41.495Z,22.15
2022-11-19T12:31:34.701Z,22.33
2022-11-19T12:34:39.123Z,21.38
2022-11-19T12:37:32.739Z,21.35
2022-11-19T12:40:30.063Z,22.27
2022-11-19T12:43:18.626Z,20.05
2022-11-19T12:46:10.472Z,20.05
2022-11-19T12:48:56.466Z,19.85
2022-11-19T12:52:00.106Z,21.00
2022-11-19T12:55:15.212Z,19.92
2022-11-19T12:57:55.640Z,20.17
2022-11-19T13:00:25.017Z,19.90
2022-11-19T13:03:08.759Z,20.00
2022-11-19T13:05:47.827Z,18.92
2022-11-19T13:08:47.306Z,18.80
2022-11-19T13:11:36.411Z,18.80
2022-11-19T13:14:17.591Z,19.60
2022-11-19T13:16:44.991Z,18.05
2022-11-19T13:19:29.467Z,18.85
2022-11-19T13:22:20.448Z,18.58
2022-11-19T13:24:56.061Z,18.13
2022-11-19T13:27:28.393Z,19.67
2022-11-19T13:30:05.015Z,19.27
2022-11-19T13:32:54.385Z,19.10
2022-11-19T13:35:26.707Z,19.23
2022-11-19T13:38:16.541Z,17.60
2022-11-19T13:40:49.810Z,18.42
2022-11-19T13:43:40.522Z,18.40
2022-11-19T13:46:13.235Z,18.65
2022-11-19T13:48:54.437Z,18.05
2022-11-19T13:51:33.053Z,17.52
2022-11-19T13:54:03.828Z,18.50
2022-11-19T13:56:42.406Z,17.20
2022-11-19T13:59:39.113Z,17.00
2022-11-19T14:02:08.974Z,17.60
2022-11-19T14:04:51.594Z,16.92
2022-11-19T14:07:34.734Z,17.17
2022-11-19T14:10:25.617Z,17.73
2022-11-19T14:13:16.946Z,16.98
2022-11-19T14:16:15.428Z,17.38
2022-11-19T14:19:07.481Z,15.75
2022-11-19T14:24:44.094Z,16.75
2022-11-19T14:27:28.000Z,15.82
2022-11-19T14:29:59.208Z,17.42
2022-11-19T14:32:46.624Z,16.13
2022-11-19T14:35:16.991Z,16.40
2022-11-19T14:37:46.587Z,16.27
2022-11-19T14:40:21.285Z,15.85
2022-11-19T14:43:36.080Z,16.58
2022-11-19T14:46:05.601Z,15.57
2022-11-19T14:48:36.937Z,15.15
2022-11-19T14:51:28.938Z,15.23
2022-11-19T14:54:32.311Z,15.45
2022-11-19T14:57:06.374Z,14.90
2022-11-19T14:59:39.772Z,15.75
2022-11-19T15:02:27.128Z,16.33
2022-11-19T15:05:00.660Z,15.55
2022-11-19T15:07:44.209Z,15.18
2022-11-19T15:10:13.750Z,15.27
2022-11-19T15:12:43.601Z,14.77
2022-11-19T15:15:19.616Z,14.77
2022-11-19T15:18:02.366Z,15.27
2022-11-19T15:20:40.964Z,13.45
2022-11-19T15:23:27.043Z,14.00
2022-11-19T15:26:26.077Z,14.10
2022-11-19T15:29:24.896Z,14.23
2022-11-19T15:32:17.139Z,13.82
2022-11-19T15:35:09.803Z,14.73
2022-11-19T15:38:02.701Z,13.90
2022-11-19T15:40:33.716Z,14.23
2022-11-19T15:43:22.782Z,13.90
2022-11-19T15:46:11.624Z,13.30
2022-11-19T15:49:17.543Z,13.00
2022-11-19T15:52:17.325Z,12.55
2022-11-19T15:54:44.963Z,13.15
2022-11-19T15:57:17.375Z,13.50
2022-11-19T15:59:49.776Z,12.73
2022-11-19T16:02:34.657Z,13.02
2022-11-19T16:05:05.774Z,12.82
2022-11-19T16:07:35.440Z,12.48
2022-11-19T16:10:03.484Z,12.00
2022-11-19T16:12:51.976Z,11.57
2022-11-19T16:15:46.553Z,13.10
2022-11-19T16:18:18.882Z,11.65
2022-11-19T16:20:54.950Z,12.50
2022-11-19T16:23:27.732Z,12.02
2022-11-19T16:26:01.492Z,12.07
2022-11-19T16:28:32.717Z,11.80
2022-11-19T16:31:05.174Z,12.52
2022-11-19T16:33:34.838Z,12.00
2022-11-19T16:36:16.492Z,11.60
2022-11-19T16:38:51.873Z,10.95
2022-11-19T16:41:46.788Z,11.30
2022-11-19T16:44:18.398Z,11.75
2022-11-19T16:46:45.781Z,11.23
2022-11-19T16:49:41.330Z,11.10
2022-11-19T16:52:08.198Z,11.20
2022-11-19T16:54:51.833Z,11.00
2022-11-19T16:57:21.033Z,10.65
2022-11-19T17:00:04.392Z,11.10
2022-11-19T17:02:37.495Z,10.60
2022-11-19T17:05:16.964Z,11.02
2022-11-19T17:07:48.516Z,10.32
2022-11-19T17:10:26.596Z,10.90
2022-11-19T17:12:59.735Z,10.95
2022-11-19T17:15:44.807Z,10.27
2022-11-19T17:18:32.537Z,10.35
2022-11-19T17:21:03.394Z,10.27
2022-11-19T17:23:37.143Z,10.48
2022-11-19T17:26:17.694Z,11.00
2022-11-19T17:28:49.964Z,10.80
2022-11-19T17:31:27.191Z,10.48
2022-11-19T17:34:04.797Z,10.00
2022-11-19T17:36:37.772Z,10.25
2022-11-19T17:39:12.140Z,10.80
2022-11-19T17:41:58.523Z,10.65
2022-11-19T17:44:36.432Z,10.93
2022-11-19T17:47:20.475Z,11.38
2022-11-19T17:49:50.686Z,11.38
2022-11-19T17:52:24.639Z,11.27
2022-11-19T17:54:57.100Z,11.32
2022-11-19T17:57:29.339Z,11.80
2022-11-19T18:00:02.159Z,11.15
2022-11-19T18:02:31.674Z,11.93
2022-11-19T18:05:03.226Z,11.35
2022-11-19T18:07:32.131Z,12.18
2022-11-19T18:10:01.574Z,11.50
2022-11-19T18:12:30.628Z,11.07
2022-11-19T18:15:02.110Z,11.07
2022-11-19T18:20:01.008Z,10.82
2022-11-19T18:22:27.800Z,11.07
2022-11-19T18:24:59.431Z,11.20
2022-11-19T18:27:31.426Z,11.25
2022-11-19T18:30:03.336Z,10.95
2022-11-19T18:32:35.865Z,11.10
2022-11-19T18:35:12.848Z,11.55
2022-11-19T18:37:50.997Z,11.00
2022-11-19T18:40:20.437Z,11.32
2022-11-19T18:43:08.958Z,10.98
2022-11-19T18:45:35.897Z,11.45
2022-11-19T18:48:02.631Z,12.07
2022-11-19T18:50:32.030Z,11.23
2022-11-19T18:53:01.033Z,11.27
2022-11-19T18:55:31.189Z,12.05
2022-11-19T18:58:00.061Z,12.15
2022-11-19T19:00:29.651Z,11.52
2022-11-19T19:03:00.408Z,12.68
2022-11-19T19:05:29.472Z,12.43
2022-11-19T19:07:56.204Z,12.15
2022-11-19T19:10:26.196Z,11.63
2022-11-19T19:12:57.430Z,11.95
2022-11-19T19:15:26.660Z,12.63
2022-11-19T19:17:59.310Z,12.32
2022-11-19T19:20:32.843Z,12.15
2022-11-19T19:22:59.697Z,11.80
2022-11-19T19:25:28.755Z,11.43
2022-11-19T19:27:57.636Z,11.95
2022-11-19T19:30:26.574Z,12.07
2022-11-19T19:33:00.112Z,12.73
2022-11-19T19:35:29.842Z,12.07
2022-11-19T19:37:59.546Z,12.70
2022-11-19T19:40:31.473Z,12.35
2022-11-19T19:42:58.752Z,12.32
2022-11-19T19:45:34.955Z,12.30
2022-11-19T19:48:07.171Z,12.40
2022-11-19T19:50:39.402Z,12.10
2022-11-19T19:53:12.020Z,12.13
2022-11-19T19:55:46.460Z,12.45
2022-11-19T19:58:15.356Z,13.20
2022-11-19T20:00:42.057Z,12.82
2022-11-19T20:03:08.784Z,12.48
2022-11-19T20:05:40.129Z,12.68
2022-11-19T20:08:09.339Z,13.35
2022-11-19T20:10:38.646Z,12.25
2022-11-19T20:13:27.366Z,12.18
2022-11-19T20:15:59.880Z,12.40
2022-11-19T20:18:31.911Z,12.68
2022-11-19T20:21:00.346Z,12.20
2022-11-19T20:23:30.693Z,11.88
2022-11-19T20:26:08.197Z,11.95
2022-11-19T20:28:34.902Z,12.05
2022-11-19T20:31:19.188Z,12.55
2022-11-19T20:33:47.873Z,12.00
2022-11-19T20:36:17.414Z,12.32
2022-11-19T20:38:46.138Z,12.23
2022-11-19T20:41:33.535Z,12.65
2022-11-19T20:44:20.084Z,12.40
2022-11-19T20:46:59.056Z,12.52
2022-11-19T20:49:28.224Z,12.75
2022-11-19T20:51:55.811Z,12.25
2022-11-19T20:54:26.144Z,12.88
2022-11-19T20:56:56.176Z,12.32
2022-11-19T20:59:26.578Z,13.02
2022-11-19T21:01:54.608Z,12.43
2022-11-19T21:04:36.292Z,13.77
2022-11-19T21:07:05.699Z,11.82
2022-11-19T21:09:34.891Z,12.75
2022-11-19T21:12:04.270Z,13.30
2022-11-19T21:14:33.254Z,13.07
2022-11-19T21:17:02.250Z,13.25
2022-11-19T21:19:31.232Z,13.38
2022-11-19T21:22:02.578Z,13.25
2022-11-19T21:24:32.269Z,13.57
2022-11-19T21:27:01.203Z,12.02
2022-11-19T21:29:35.668Z,12.88
2022-11-19T21:32:02.466Z,12.85
2022-11-19T21:34:33.432Z,12.95
2022-11-19T21:37:02.606Z,14.07
2022-11-19T21:39:31.539Z,13.07
2022-11-19T21:41:58.288Z,13.55
2022-11-19T21:44:29.457Z,13.68
2022-11-19T21:47:00.774Z,14.02
2022-11-19T21:49:35.231Z,14.38
2022-11-19T21:52:04.448Z,13.00
2022-11-19T21:54:31.290Z,13.25
2022-11-19T21:57:00.655Z,13.88
2022-11-19T21:59:27.365Z,13.25
2022-11-19T22:01:56.241Z,13.10
2022-11-19T22:04:23.181Z,13.90
2022-11-19T22:06:49.883Z,12.88
2022-11-19T22:09:22.553Z,14.80
2022-11-19T22:11:49.487Z,15.23
2022-11-19T22:14:18.425Z,13.10
2022-11-19T22:16:45.133Z,14.25
2022-11-19T22:19:12.777Z,14.30
2022-11-19T22:21:40.125Z,13.68
2022-11-19T22:24:07.070Z,13.00
2022-11-19T22:26:36.656Z,13.35
2022-11-19T22:29:03.343Z,13.15
2022-11-19T22:31:30.066Z,14.07
2022-11-19T22:33:59.596Z,14.57
2022-11-19T22:36:30.407Z,13.55
2022-11-19T22:38:59.814Z,14.00
2022-11-19T22:41:28.701Z,13.55
2022-11-19T22:43:57.734Z,13.88
2022-11-19T22:46:27.043Z,13.77
2022-11-19T22:48:54.031Z,14.00
2022-11-19T22:51:23.329Z,13.70
2022-11-19T22:53:51.907Z,14.32
2022-11-19T22:56:27.864Z,14.10
2022-11-19T22:58:58.041Z,14.27
2022-11-19T23:01:33.495Z,14.10
2022-11-19T23:04:05.782Z,14.52
2022-11-19T23:06:36.994Z,13.98
2022-11-19T23:09:07.862Z,14.18
2022-11-19T23:11:53.014Z,14.63
2022-11-19T23:14:20.048Z,14.45
2022-11-19T23:16:49.065Z,15.10
2022-11-19T23:19:19.180Z,13.57
2022-11-19T23:21:46.798Z,14.43
2022-11-19T23:24:16.349Z,14.77
2022-11-19T23:26:43.133Z,14.45
2022-11-19T23:29:09.910Z,14.85
2022-11-19T23:31:40.510Z,15.23
2022-11-19T23:34:07.620Z,14.18
2022-11-19T23:36:37.290Z,14.20
2022-11-19T23:39:05.370Z,14.52
2022-11-19T23:41:33.650Z,14.30
2022-11-19T23:44:03.110Z,14.90
2022-11-19T23:46:32.523Z,15.48
2022-11-19T23:49:02.079Z,15.73
2022-11-19T23:51:33.214Z,15.07
2022-11-19T23:54:00.365Z,15.02
2022-11-19T23:56:32.689Z,14.68
2022-11-19T23:59:03.261Z,14.65
